Terminal Aerodrome Forecast
Issued by NWS Sioux Falls, SD

Home | Current Version | Previous Version | Text Only | Print | Product List | Glossary Off
Versions: 1 2 3 4 5 6 7 8 9 10 11 12 13 14 15 16 17 18 19 20 21 22 23 24 25 26 27 28 29 30

938
FTUS43 KFSD 250004 RRA
TAFSUX
TAF
KSUX 250004Z 2500/2524 13004KT P6SM FEW050
     FM250400 13007KT P6SM SKC
     FM251500 17014G22KT P6SM SCT120
     FM252100 18010KT P6SM SCT050=

USA.gov is the U.S. government's official web portal to all federal, state and local government web resources and services.